createdAt,value
2024-05-09T00:01:50.581Z,100282.94
2024-05-09T00:04:16.737Z,100275.97
2024-05-09T00:06:42.821Z,100276.22
2024-05-09T00:09:08.872Z,100273.63
2024-05-09T00:11:35.024Z,100273.56
2024-05-09T00:14:01.514Z,100270.53
2024-05-09T00:16:27.583Z,100272.25
2024-05-09T00:18:54.098Z,100272.44
2024-05-09T00:21:20.326Z,100267.13
2024-05-09T00:23:46.378Z,100271.00
2024-05-09T00:26:16.715Z,100261.34
2024-05-09T00:28:42.803Z,100274.19
2024-05-09T00:31:08.863Z,100262.13
2024-05-09T00:33:35.069Z,100268.72
2024-05-09T00:36:01.241Z,100260.16
2024-05-09T00:38:27.341Z,100263.69
2024-05-09T00:40:53.497Z,100257.72
2024-05-09T00:43:19.657Z,100258.66
2024-05-09T00:45:46.048Z,100261.16
2024-05-09T00:48:16.432Z,100255.06
2024-05-09T00:50:46.108Z,100257.72
2024-05-09T00:53:14.886Z,100262.00
2024-05-09T00:55:41.760Z,100259.50
2024-05-09T00:58:11.500Z,100267.97
2024-05-09T01:00:40.316Z,100261.06
2024-05-09T01:03:09.085Z,100265.16
2024-05-09T01:05:38.342Z,100259.19
2024-05-09T01:08:05.325Z,100258.34
2024-05-09T01:10:34.797Z,100256.25
2024-05-09T01:13:05.255Z,100261.09
2024-05-09T01:15:31.632Z,100265.38
2024-05-09T01:18:00.397Z,100265.88
2024-05-09T01:20:37.241Z,100263.91
2024-05-09T01:23:08.831Z,100261.97
2024-05-09T01:25:35.060Z,100262.75
2024-05-09T01:28:01.296Z,100256.00
2024-05-09T01:30:33.948Z,100256.09
2024-05-09T01:33:02.386Z,100260.28
2024-05-09T01:35:28.659Z,100251.88
2024-05-09T01:37:54.872Z,100252.47
2024-05-09T01:40:28.494Z,100247.13
2024-05-09T01:43:00.116Z,100252.97
2024-05-09T01:45:26.154Z,100247.97
2024-05-09T01:47:52.500Z,100252.31
2024-05-09T01:50:28.825Z,100253.94
2024-05-09T01:53:02.449Z,100255.53
2024-05-09T01:55:28.575Z,100265.78
2024-05-09T01:57:54.638Z,100262.28
2024-05-09T02:00:30.274Z,100261.25
2024-05-09T02:03:04.052Z,100259.50
2024-05-09T02:05:30.317Z,100259.63
2024-05-09T02:07:56.456Z,100261.50
2024-05-09T02:10:26.579Z,100258.13
2024-05-09T02:12:58.270Z,100260.63
2024-05-09T02:15:24.374Z,100265.72
2024-05-09T02:17:50.602Z,100256.97
2024-05-09T02:20:23.139Z,100269.03
2024-05-09T02:22:56.904Z,100265.84
2024-05-09T02:25:23.848Z,100266.00
2024-05-09T02:27:50.454Z,100260.22
2024-05-09T02:30:22.893Z,100260.97
2024-05-09T02:32:56.697Z,100253.38
2024-05-09T02:35:22.932Z,100263.97
2024-05-09T02:37:49.117Z,100263.06
2024-05-09T02:40:21.580Z,100271.53
2024-05-09T02:42:51.772Z,100261.97
2024-05-09T02:45:17.818Z,100269.59
2024-05-09T02:47:44.049Z,100262.56
2024-05-09T02:50:13.319Z,100267.00
2024-05-09T02:52:42.037Z,100262.66
2024-05-09T02:55:08.109Z,100266.91
2024-05-09T02:57:34.136Z,100260.72
2024-05-09T03:00:00.198Z,100258.28
2024-05-09T03:02:26.633Z,100254.66
2024-05-09T03:04:52.937Z,100258.78
2024-05-09T03:07:20.374Z,100265.66
2024-05-09T03:09:46.866Z,100261.25
2024-05-09T03:12:12.991Z,100262.94
2024-05-09T03:14:39.216Z,100269.66
2024-05-09T03:17:05.309Z,100270.78
2024-05-09T03:19:31.502Z,100272.50
2024-05-09T03:21:58.328Z,100267.34
2024-05-09T03:24:24.360Z,100269.09
2024-05-09T03:26:50.412Z,100268.19
2024-05-09T03:29:16.505Z,100259.63
2024-05-09T03:31:42.603Z,100260.47
2024-05-09T03:34:10.585Z,100262.34
2024-05-09T03:36:40.872Z,100261.78
2024-05-09T03:39:09.154Z,100262.66
2024-05-09T03:41:35.313Z,100262.81
2024-05-09T03:44:01.578Z,100266.25
2024-05-09T03:46:27.742Z,100267.00
2024-05-09T03:48:53.905Z,100267.66
2024-05-09T03:51:20.083Z,100272.84
2024-05-09T03:53:46.219Z,100270.97
2024-05-09T03:56:12.333Z,100266.63
2024-05-09T03:58:38.508Z,100271.81
2024-05-09T04:01:05.009Z,100274.47
2024-05-09T04:03:31.296Z,100272.56
2024-05-09T04:05:57.465Z,100271.66
2024-05-09T04:08:23.572Z,100273.31
2024-05-09T04:10:49.723Z,100281.72
2024-05-09T04:13:15.804Z,100284.81
2024-05-09T04:15:41.857Z,100282.84
2024-05-09T04:18:08.131Z,100278.63
2024-05-09T04:20:38.936Z,100284.75
2024-05-09T04:23:10.073Z,100288.28
2024-05-09T04:25:36.175Z,100294.31
2024-05-09T04:28:02.497Z,100296.91
2024-05-09T04:30:37.478Z,100295.88
2024-05-09T04:33:08.500Z,100291.47
2024-05-09T04:35:36.851Z,100307.44
2024-05-09T04:38:03.173Z,100309.03
2024-05-09T04:40:34.067Z,100312.63
2024-05-09T04:43:03.042Z,100308.22
2024-05-09T04:45:29.082Z,100307.50
2024-05-09T04:47:55.349Z,100305.69
2024-05-09T04:50:30.176Z,100310.19
2024-05-09T04:53:02.992Z,100311.00
2024-05-09T04:55:29.159Z,100311.72
2024-05-09T04:57:55.188Z,100314.31
2024-05-09T05:00:28.643Z,100312.28
2024-05-09T05:03:05.102Z,100317.28
2024-05-09T05:05:31.566Z,100318.19
2024-05-09T05:07:57.648Z,100318.75
2024-05-09T05:10:32.935Z,100314.41
2024-05-09T05:13:19.723Z,100315.19
2024-05-09T05:15:47.422Z,100323.81
2024-05-09T05:18:14.478Z,100322.06
2024-05-09T05:20:41.386Z,100327.88
2024-05-09T05:23:10.731Z,100330.31
2024-05-09T05:25:37.014Z,100322.16
2024-05-09T05:28:03.241Z,100329.03
2024-05-09T05:30:34.426Z,100329.84
2024-05-09T05:33:02.311Z,100341.25
2024-05-09T05:35:28.839Z,100339.41
2024-05-09T05:37:55.047Z,100339.63
2024-05-09T05:40:28.514Z,100344.16
2024-05-09T05:43:02.498Z,100345.22
2024-05-09T05:45:28.544Z,100349.28
2024-05-09T05:47:54.875Z,100350.97
2024-05-09T05:50:27.872Z,100358.00
2024-05-09T05:53:01.214Z,100355.88
2024-05-09T05:55:27.263Z,100347.09
2024-05-09T05:57:53.324Z,100351.16
2024-05-09T06:00:29.182Z,100364.00
2024-05-09T06:03:01.623Z,100351.09
2024-05-09T06:05:28.189Z,100360.84
2024-05-09T06:07:54.350Z,100359.88
2024-05-09T06:10:25.491Z,100357.13
2024-05-09T06:12:55.615Z,100361.41
2024-05-09T06:15:21.651Z,100363.09
2024-05-09T06:17:47.879Z,100361.25
2024-05-09T06:20:20.547Z,100365.03
2024-05-09T06:22:52.935Z,100364.97
2024-05-09T06:25:19.018Z,100375.22
2024-05-09T06:27:45.214Z,100372.56
2024-05-09T06:30:24.819Z,100371.09
2024-05-09T06:32:55.708Z,100381.06
2024-05-09T06:35:21.900Z,100370.69
2024-05-09T06:37:48.044Z,100368.94
2024-05-09T06:40:17.475Z,100373.31
2024-05-09T06:42:43.822Z,100375.69
2024-05-09T06:45:09.890Z,100390.25
2024-05-09T06:47:36.087Z,100383.88
2024-05-09T06:50:02.709Z,100388.28
2024-05-09T06:52:29.675Z,100389.38
2024-05-09T06:54:55.727Z,100388.09
2024-05-09T06:57:22.593Z,100385.88
2024-05-09T06:59:48.645Z,100382.75
2024-05-09T07:02:14.736Z,100384.50
2024-05-09T07:04:40.853Z,100385.72
2024-05-09T07:07:08.747Z,100384.78
2024-05-09T07:09:34.845Z,100388.16
2024-05-09T07:12:01.003Z,100388.72
2024-05-09T07:14:27.376Z,100399.25
2024-05-09T07:16:53.531Z,100392.22
2024-05-09T07:19:19.779Z,100388.84
2024-05-09T07:21:45.943Z,100394.53
2024-05-09T07:24:11.989Z,100394.91
2024-05-09T07:26:38.232Z,100396.50
2024-05-09T07:29:04.389Z,100396.34
2024-05-09T07:31:30.900Z,100398.41
2024-05-09T07:33:57.098Z,100393.44
2024-05-09T07:36:23.226Z,100400.69
2024-05-09T07:38:49.298Z,100401.84
2024-05-09T07:41:15.437Z,100396.19
2024-05-09T07:43:41.537Z,100400.78
2024-05-09T07:47:13.873Z,100396.56
2024-05-09T07:50:35.478Z,100403.28
2024-05-09T07:54:10.727Z,100397.81
2024-05-09T07:56:37.264Z,100398.41
2024-05-09T07:59:03.461Z,100394.56
2024-05-09T08:01:29.755Z,100400.69
2024-05-09T08:03:56.128Z,100395.94
2024-05-09T08:06:23.226Z,100398.97
2024-05-09T08:08:49.449Z,100394.78
2024-05-09T08:11:15.579Z,100403.31
2024-05-09T08:13:41.745Z,100406.94
2024-05-09T08:16:08.700Z,100391.88
2024-05-09T08:18:35.188Z,100406.13
2024-05-09T08:21:01.484Z,100400.97
2024-05-09T08:23:28.184Z,100398.13
2024-05-09T08:25:54.237Z,100400.03
2024-05-09T08:28:20.766Z,100401.16
2024-05-09T08:30:47.024Z,100404.09
2024-05-09T08:33:13.355Z,100408.38
2024-05-09T08:35:39.510Z,100419.78
2024-05-09T08:38:07.030Z,100417.00
2024-05-09T08:40:36.283Z,100409.34
2024-05-09T08:43:08.363Z,100408.09
2024-05-09T08:45:35.901Z,100400.31
2024-05-09T08:48:04.944Z,100403.09
2024-05-09T08:50:37.919Z,100411.06
2024-05-09T09:00:38.641Z,100410.72
2024-05-09T09:03:09.086Z,100399.13
2024-05-09T09:05:38.063Z,100402.31
2024-05-09T09:08:06.071Z,100395.44
2024-05-09T09:10:33.238Z,100399.97
2024-05-09T09:13:03.850Z,100394.41
2024-05-09T09:15:30.069Z,100391.81
2024-05-09T09:17:59.970Z,100392.00
2024-05-09T09:20:34.089Z,100384.88
2024-05-09T09:23:02.924Z,100387.56
2024-05-09T09:25:29.023Z,100386.38
2024-05-09T09:27:57.050Z,100388.81
2024-05-09T09:30:34.472Z,100385.72
2024-05-09T09:33:03.788Z,100374.13
2024-05-09T09:35:29.888Z,100379.16
2024-05-09T09:38:00.707Z,100377.75
2024-05-09T09:40:32.305Z,100374.41
2024-05-09T09:43:01.056Z,100385.63
2024-05-09T09:45:28.399Z,100382.47
2024-05-09T09:47:56.584Z,100378.22
2024-05-09T09:50:33.224Z,100368.44
2024-05-09T09:53:01.489Z,100377.44
2024-05-09T09:55:27.982Z,100377.88
2024-05-09T09:57:55.741Z,100366.84
2024-05-09T10:00:27.450Z,100368.13
2024-05-09T10:02:58.564Z,100377.00
2024-05-09T10:05:25.023Z,100375.69
2024-05-09T10:07:52.735Z,100373.34
2024-05-09T10:10:31.947Z,100365.25
2024-05-09T10:13:00.525Z,100365.31
2024-05-09T10:15:26.906Z,100354.41
2024-05-09T10:17:53.330Z,100356.63
2024-05-09T10:20:22.198Z,100361.78
2024-05-09T10:22:53.752Z,100358.13
2024-05-09T10:25:20.211Z,100358.31
2024-05-09T10:27:54.768Z,100352.97
2024-05-09T10:30:29.800Z,100348.13
2024-05-09T10:33:01.783Z,100356.63
2024-05-09T10:35:30.752Z,100343.84
2024-05-09T10:38:02.756Z,100338.31
2024-05-09T10:40:31.704Z,100329.28
2024-05-09T10:43:01.957Z,100335.25
2024-05-09T10:45:29.615Z,100334.19
2024-05-09T10:47:55.856Z,100336.53
2024-05-09T10:50:25.564Z,100341.56
2024-05-09T10:52:55.013Z,100344.25
2024-05-09T10:55:21.242Z,100334.47
2024-05-09T10:57:47.758Z,100339.56
2024-05-09T11:00:23.184Z,100343.09
2024-05-09T11:02:56.227Z,100340.88
2024-05-09T11:05:23.532Z,100339.41
2024-05-09T11:07:50.520Z,100337.66
2024-05-09T11:10:24.419Z,100332.84
2024-05-09T11:12:53.670Z,100330.78
2024-05-09T11:17:45.862Z,100320.25
2024-05-09T11:20:17.123Z,100324.75
2024-05-09T11:22:49.206Z,100317.47
2024-05-09T11:25:15.379Z,100313.53
2024-05-09T11:27:41.844Z,100313.19
2024-05-09T11:30:24.213Z,100313.19
2024-05-09T11:32:58.079Z,100310.16
2024-05-09T11:35:25.878Z,100300.53
2024-05-09T11:37:53.257Z,100309.97
2024-05-09T11:40:25.327Z,100299.16
2024-05-09T11:42:54.687Z,100297.41
2024-05-09T11:45:21.354Z,100305.63
2024-05-09T11:47:47.819Z,100305.53
2024-05-09T11:50:22.465Z,100308.00
2024-05-09T11:52:53.523Z,100302.41
2024-05-09T11:55:19.796Z,100292.88
2024-05-09T11:57:45.910Z,100293.72
2024-05-09T12:00:18.188Z,100298.00
2024-05-09T12:02:52.020Z,100288.72
2024-05-09T12:05:18.388Z,100278.78
2024-05-09T12:07:44.586Z,100278.88
2024-05-09T12:10:16.568Z,100279.91
2024-05-09T12:12:45.464Z,100278.09
2024-05-09T12:15:12.104Z,100279.13
2024-05-09T12:17:38.246Z,100274.34
2024-05-09T12:20:09.030Z,100278.88
2024-05-09T12:22:37.254Z,100275.72
2024-05-09T12:25:04.319Z,100273.53
2024-05-09T12:27:30.858Z,100273.81
2024-05-09T12:29:56.931Z,100269.88
2024-05-09T12:32:23.190Z,100276.59
2024-05-09T12:34:49.286Z,100273.38
2024-05-09T12:37:15.451Z,100272.66
2024-05-09T12:39:41.587Z,100267.19
2024-05-09T12:42:07.739Z,100273.09
2024-05-09T12:44:33.826Z,100260.22
2024-05-09T12:47:00.863Z,100258.44
2024-05-09T12:49:27.035Z,100256.47
2024-05-09T12:51:53.288Z,100250.41
2024-05-09T12:54:19.374Z,100254.38
2024-05-09T12:56:45.448Z,100263.69
2024-05-09T12:59:11.546Z,100253.63
2024-05-09T13:01:37.728Z,100251.97
2024-05-09T13:04:04.404Z,100247.06
2024-05-09T13:06:30.747Z,100249.13
2024-05-09T13:08:57.020Z,100249.25
2024-05-09T13:11:23.121Z,100248.78
2024-05-09T13:13:49.211Z,100249.91
2024-05-09T13:16:15.361Z,100246.81
2024-05-09T13:18:41.550Z,100245.72
2024-05-09T13:21:07.667Z,100236.28
2024-05-09T13:23:33.787Z,100241.06
2024-05-09T13:25:59.858Z,100242.53
2024-05-09T13:28:26.267Z,100232.72
2024-05-09T13:30:52.412Z,100232.63
2024-05-09T13:33:18.720Z,100234.88
2024-05-09T13:35:48.926Z,100232.50
2024-05-09T13:38:20.763Z,100233.22
2024-05-09T13:40:47.990Z,100234.41
2024-05-09T13:43:14.428Z,100233.09
2024-05-09T13:45:40.609Z,100222.81
2024-05-09T13:48:09.079Z,100213.28
2024-05-09T13:50:36.794Z,100212.19
2024-05-09T13:53:04.278Z,100215.53
2024-05-09T13:55:30.417Z,100211.84
2024-05-09T13:57:56.671Z,100212.56
2024-05-09T14:00:37.248Z,100213.22
2024-05-09T14:03:09.464Z,100207.97
2024-05-09T14:05:35.925Z,100210.00
2024-05-09T14:08:02.745Z,100216.44
2024-05-09T14:10:31.344Z,100202.22
2024-05-09T14:12:58.336Z,100209.22
2024-05-09T14:15:24.401Z,100206.13
2024-05-09T14:17:50.578Z,100205.38
2024-05-09T14:20:23.731Z,100209.28
2024-05-09T14:22:56.591Z,100209.16
2024-05-09T14:25:25.659Z,100208.47
2024-05-09T14:27:51.838Z,100207.16
2024-05-09T14:30:25.883Z,100210.69
2024-05-09T14:32:59.829Z,100200.97
2024-05-09T14:35:25.911Z,100201.75
2024-05-09T14:37:51.966Z,100193.63
2024-05-09T14:42:47.037Z,100193.31
2024-05-09T14:45:13.184Z,100181.41
2024-05-09T14:47:39.556Z,100202.25
2024-05-09T14:50:07.092Z,100189.72
2024-05-09T14:52:34.943Z,100191.34
2024-05-09T14:55:01.291Z,100186.41
2024-05-09T14:57:27.752Z,100183.19
2024-05-09T14:59:53.791Z,100181.88
2024-05-09T15:02:20.169Z,100187.28
2024-05-09T15:04:46.506Z,100186.75
2024-05-09T15:07:12.758Z,100176.94
2024-05-09T15:09:38.872Z,100174.00
2024-05-09T15:12:05.139Z,100178.19
2024-05-09T15:14:31.195Z,100178.38
2024-05-09T15:16:57.329Z,100177.94
2024-05-09T15:19:23.511Z,100169.06
2024-05-09T15:21:49.783Z,100171.31
2024-05-09T15:24:15.910Z,100173.13
2024-05-09T15:26:41.981Z,100172.56
2024-05-09T15:29:08.544Z,100161.91
2024-05-09T15:31:34.606Z,100163.00
2024-05-09T15:34:00.757Z,100160.78
2024-05-09T15:36:26.827Z,100157.19
2024-05-09T15:38:55.001Z,100155.91
2024-05-09T15:41:21.144Z,100156.88
2024-05-09T15:43:47.185Z,100162.69
2024-05-09T15:46:13.346Z,100153.25
2024-05-09T15:48:44.347Z,100152.09
2024-05-09T15:51:11.024Z,100153.31
2024-05-09T15:53:37.090Z,100153.38
2024-05-09T15:56:03.317Z,100155.91
2024-05-09T15:58:29.531Z,100160.16
2024-05-09T16:00:55.785Z,100156.34
2024-05-09T16:03:21.974Z,100156.72
2024-05-09T16:05:49.980Z,100154.22
2024-05-09T16:08:16.241Z,100146.00
2024-05-09T16:10:45.615Z,100152.69
2024-05-09T16:13:12.740Z,100152.09
2024-05-09T16:15:39.172Z,100154.69
2024-05-09T16:18:06.162Z,100153.50
2024-05-09T16:20:38.938Z,100151.81
2024-05-09T16:23:08.287Z,100165.50
2024-05-09T16:25:34.909Z,100152.25
2024-05-09T16:28:02.085Z,100154.22
2024-05-09T16:30:34.431Z,100157.25
2024-05-09T16:33:03.506Z,100155.72
2024-05-09T16:35:30.296Z,100151.19
2024-05-09T16:37:56.498Z,100152.78
2024-05-09T16:40:30.233Z,100160.47
2024-05-09T16:43:03.673Z,100149.06
2024-05-09T16:45:30.002Z,100152.63
2024-05-09T16:47:56.513Z,100154.88
2024-05-09T16:50:29.201Z,100154.88
2024-05-09T16:52:58.734Z,100153.59
2024-05-09T16:55:24.829Z,100155.03
2024-05-09T16:57:51.490Z,100148.34
2024-05-09T17:00:25.621Z,100146.66
2024-05-09T17:02:57.924Z,100155.56
2024-05-09T17:05:24.104Z,100153.53
2024-05-09T17:07:50.425Z,100159.03
2024-05-09T17:10:26.395Z,100151.28
2024-05-09T17:12:57.995Z,100152.22
2024-05-09T17:15:24.109Z,100160.06
2024-05-09T17:17:50.262Z,100165.41
2024-05-09T17:20:26.009Z,100163.09
2024-05-09T17:22:58.565Z,100163.81
2024-05-09T17:25:24.648Z,100173.09
2024-05-09T17:27:50.749Z,100173.94
2024-05-09T17:30:28.024Z,100168.50
2024-05-09T17:32:58.869Z,100172.34
2024-05-09T17:35:24.997Z,100169.78
2024-05-09T17:37:51.110Z,100168.53
2024-05-09T17:40:20.714Z,100169.56
2024-05-09T17:42:50.761Z,100179.28
2024-05-09T17:45:16.839Z,100178.16
2024-05-09T17:47:43.088Z,100178.59
2024-05-09T17:50:14.729Z,100176.06
2024-05-09T17:52:43.327Z,100182.69
2024-05-09T17:55:09.523Z,100180.41
2024-05-09T17:57:35.655Z,100188.09
2024-05-09T18:00:02.955Z,100178.59
2024-05-09T18:02:31.131Z,100188.84
2024-05-09T18:04:57.333Z,100183.56
2024-05-09T18:07:23.497Z,100186.63
2024-05-09T18:09:49.651Z,100194.47
2024-05-09T18:12:15.839Z,100196.94
2024-05-09T18:14:41.890Z,100204.91
2024-05-09T18:17:07.961Z,100203.59
2024-05-09T18:19:34.574Z,100216.81
2024-05-09T18:22:00.932Z,100215.56
2024-05-09T18:24:27.022Z,100218.97
2024-05-09T18:26:53.330Z,100218.97
2024-05-09T18:29:22.053Z,100229.31
2024-05-09T18:31:48.237Z,100224.38
2024-05-09T18:34:14.450Z,100223.75
2024-05-09T18:36:40.986Z,100225.59
2024-05-09T18:39:07.140Z,100232.22
2024-05-09T18:41:33.206Z,100229.25
2024-05-09T18:43:59.353Z,100239.84
2024-05-09T18:46:26.008Z,100244.38
2024-05-09T18:48:52.329Z,100243.75
2024-05-09T18:51:18.698Z,100248.78
2024-05-09T18:53:48.381Z,100250.94
2024-05-09T18:56:14.515Z,100250.19
2024-05-09T18:58:40.657Z,100260.63
2024-05-09T19:01:06.867Z,100259.38
2024-05-09T19:03:33.244Z,100264.00
2024-05-09T19:05:59.450Z,100271.81
2024-05-09T19:08:25.698Z,100274.16
2024-05-09T19:10:51.996Z,100270.59
2024-05-09T19:13:18.260Z,100270.41
2024-05-09T19:15:44.803Z,100277.72
2024-05-09T19:18:15.118Z,100279.75
2024-05-09T19:20:42.206Z,100287.41
2024-05-09T19:23:09.206Z,100290.75
2024-05-09T19:25:36.013Z,100288.00
2024-05-09T19:28:03.716Z,100291.44
2024-05-09T19:30:38.007Z,100289.88
2024-05-09T19:33:08.411Z,100293.38
2024-05-09T19:35:34.845Z,100296.06
2024-05-09T19:38:01.346Z,100297.38
2024-05-09T19:40:31.898Z,100304.84
2024-05-09T19:43:00.874Z,100302.47
2024-05-09T19:45:27.182Z,100306.72
2024-05-09T19:47:53.476Z,100308.41
2024-05-09T19:50:26.822Z,100314.50
2024-05-09T19:53:01.730Z,100311.59
2024-05-09T19:55:27.868Z,100311.66
2024-05-09T19:57:54.002Z,100317.69
2024-05-09T20:00:26.527Z,100316.22
2024-05-09T20:02:58.728Z,100320.47
2024-05-09T20:05:24.981Z,100314.84
2024-05-09T20:07:51.138Z,100322.50
2024-05-09T20:10:23.729Z,100322.78
2024-05-09T20:12:53.277Z,100325.03
2024-05-09T20:15:19.373Z,100334.84
2024-05-09T20:17:45.516Z,100322.25
2024-05-09T20:20:20.280Z,100336.09
2024-05-09T20:22:54.225Z,100339.16
2024-05-09T20:25:20.262Z,100330.84
2024-05-09T20:27:46.372Z,100331.94
2024-05-09T20:30:17.053Z,100344.47
2024-05-09T20:32:47.636Z,100342.78
2024-05-09T20:35:13.945Z,100349.13
2024-05-09T20:37:39.980Z,100345.41
2024-05-09T20:40:10.110Z,100344.19
2024-05-09T20:42:44.262Z,100348.72
2024-05-09T20:45:10.313Z,100356.81
2024-05-09T20:47:37.897Z,100357.72
2024-05-09T20:50:09.064Z,100349.06
2024-05-09T20:52:39.476Z,100355.25
2024-05-09T20:55:05.852Z,100353.59
2024-05-09T20:57:32.030Z,100356.63
2024-05-09T20:59:58.273Z,100353.28
2024-05-09T21:02:24.548Z,100360.31
2024-05-09T21:04:50.993Z,100361.78
2024-05-09T21:07:17.329Z,100361.56
2024-05-09T21:09:43.500Z,100366.25
2024-05-09T21:12:09.606Z,100371.72
2024-05-09T21:14:35.635Z,100364.72
2024-05-09T21:17:01.815Z,100365.00
2024-05-09T21:19:28.006Z,100370.34
2024-05-09T21:21:54.100Z,100368.88
2024-05-09T21:24:20.188Z,100373.28
2024-05-09T21:26:46.227Z,100366.44
2024-05-09T21:29:12.272Z,100373.47
2024-05-09T21:31:38.382Z,100378.03
2024-05-09T21:34:04.575Z,100376.63
2024-05-09T21:36:30.712Z,100375.22
2024-05-09T21:38:56.738Z,100372.88
2024-05-09T21:41:24.107Z,100374.44
2024-05-09T21:43:50.189Z,100375.84
2024-05-09T21:46:16.313Z,100376.13
2024-05-09T21:48:42.533Z,100379.69
2024-05-09T21:51:15.367Z,100387.63
2024-05-09T21:53:41.418Z,100383.59
2024-05-09T21:56:08.048Z,100380.41
2024-05-09T21:58:34.147Z,100387.13
2024-05-09T22:01:00.383Z,100382.94
2024-05-09T22:03:26.710Z,100376.97
2024-05-09T22:05:52.932Z,100376.41
2024-05-09T22:08:18.971Z,100385.84
2024-05-09T22:10:45.211Z,100380.72
2024-05-09T22:13:11.400Z,100382.22
2024-05-09T22:15:39.665Z,100379.69
2024-05-09T22:18:10.494Z,100386.88
2024-05-09T22:20:42.857Z,100384.38
2024-05-09T22:23:09.477Z,100381.69
2024-05-09T22:25:36.312Z,100385.84
2024-05-09T22:28:03.071Z,100386.63
2024-05-09T22:32:58.575Z,100387.75
2024-05-09T22:35:24.701Z,100388.38
2024-05-09T22:37:50.768Z,100386.59
2024-05-09T22:40:24.378Z,100389.16
2024-05-09T22:42:59.543Z,100394.72
2024-05-09T22:45:25.669Z,100382.75
2024-05-09T22:47:51.821Z,100388.59
2024-05-09T22:50:26.334Z,100385.84
2024-05-09T22:52:53.411Z,100389.16
2024-05-09T22:55:19.515Z,100390.13
2024-05-09T22:57:45.663Z,100388.19
2024-05-09T23:00:15.746Z,100394.19
2024-05-09T23:02:42.242Z,100394.84
2024-05-09T23:05:08.524Z,100399.88
2024-05-09T23:07:34.660Z,100396.66
2024-05-09T23:10:00.816Z,100401.03
2024-05-09T23:12:26.930Z,100410.38
2024-05-09T23:14:52.970Z,100404.63
2024-05-09T23:17:19.105Z,100402.75
2024-05-09T23:19:45.320Z,100402.75
2024-05-09T23:22:11.595Z,100401.81
2024-05-09T23:24:38.405Z,100401.94
2024-05-09T23:27:04.600Z,100405.72
2024-05-09T23:29:30.703Z,100403.09
2024-05-09T23:31:56.740Z,100403.19
2024-05-09T23:34:23.559Z,100406.88
2024-05-09T23:36:49.808Z,100413.44
2024-05-09T23:39:17.699Z,100408.06
2024-05-09T23:41:43.739Z,100409.19
2024-05-09T23:44:09.881Z,100401.19
2024-05-09T23:46:35.991Z,100401.44
2024-05-09T23:49:02.203Z,100401.75
2024-05-09T23:51:28.302Z,100407.41
2024-05-09T23:53:54.340Z,100408.09
2024-05-09T23:56:22.919Z,100407.34
2024-05-09T23:58:48.965Z,100402.22
